createdAt,value
2023-08-02T00:00:05.940Z,15.51
2023-08-02T00:01:05.996Z,15.49
2023-08-02T00:02:06.111Z,15.46
2023-08-02T00:03:06.201Z,15.38
2023-08-02T00:04:11.275Z,15.32
2023-08-02T00:05:06.312Z,15.27
2023-08-02T00:06:06.462Z,15.20
2023-08-02T00:07:06.466Z,15.14
2023-08-02T00:08:06.544Z,15.10
2023-08-02T00:09:06.609Z,15.09
2023-08-02T00:10:06.677Z,15.06
2023-08-02T00:11:06.735Z,15.03
2023-08-02T00:12:06.809Z,14.99
2023-08-02T00:13:06.872Z,14.98
2023-08-02T00:14:06.961Z,14.95
2023-08-02T00:15:07.019Z,14.96
2023-08-02T00:16:07.142Z,14.94
2023-08-02T00:17:07.182Z,14.94
2023-08-02T00:18:07.280Z,14.88
2023-08-02T00:19:07.340Z,14.80
2023-08-02T00:20:07.409Z,14.73
2023-08-02T00:21:07.473Z,14.69
2023-08-02T00:22:07.585Z,14.62
2023-08-02T00:23:07.630Z,14.55
2023-08-02T00:24:07.706Z,14.50
2023-08-02T00:25:07.830Z,14.46
2023-08-02T00:26:07.862Z,14.43
2023-08-02T00:27:07.942Z,14.40
2023-08-02T00:28:07.993Z,14.37
2023-08-02T00:29:08.063Z,14.37
2023-08-02T00:30:08.153Z,14.36
2023-08-02T00:31:08.374Z,14.35
2023-08-02T00:32:08.371Z,14.35
2023-08-02T00:33:08.444Z,14.37
2023-08-02T00:34:08.487Z,14.33
2023-08-02T00:35:08.557Z,14.35
2023-08-02T00:36:08.726Z,14.33
2023-08-02T00:37:08.718Z,14.28
2023-08-02T00:38:08.807Z,14.32
2023-08-02T00:39:08.918Z,14.32
2023-08-02T00:40:08.982Z,14.32
2023-08-02T00:41:09.059Z,14.28
2023-08-02T00:42:09.123Z,14.27
2023-08-02T00:43:09.179Z,14.21
2023-08-02T00:44:09.238Z,14.21
2023-08-02T00:45:09.322Z,14.17
2023-08-02T00:46:09.484Z,14.15
2023-08-02T00:47:09.561Z,14.12
2023-08-02T00:48:09.617Z,14.10
2023-08-02T00:49:09.663Z,14.07
2023-08-02T00:50:09.720Z,14.06
2023-08-02T00:51:09.776Z,14.00
2023-08-02T00:52:09.883Z,13.97
2023-08-02T00:53:09.949Z,13.91
2023-08-02T00:54:09.998Z,13.88
2023-08-02T00:55:10.095Z,13.84
2023-08-02T00:56:10.176Z,13.81
2023-08-02T00:57:10.274Z,13.78
2023-08-02T00:58:10.317Z,13.75
2023-08-02T00:59:10.386Z,13.71
2023-08-02T01:00:10.445Z,13.69
2023-08-02T01:01:10.546Z,13.67
2023-08-02T01:02:10.623Z,13.66
2023-08-02T01:03:10.748Z,13.64
2023-08-02T01:04:10.757Z,13.62
2023-08-02T01:05:13.628Z,13.55
2023-08-02T01:06:10.988Z,13.55
2023-08-02T01:07:11.036Z,13.51
2023-08-02T01:08:11.152Z,13.49
2023-08-02T01:09:11.172Z,13.54
2023-08-02T01:10:11.259Z,13.54
2023-08-02T01:11:11.375Z,13.51
2023-08-02T01:12:11.455Z,13.48
2023-08-02T01:13:11.525Z,13.46
2023-08-02T01:14:11.598Z,13.45
2023-08-02T01:15:11.657Z,13.44
2023-08-02T01:16:11.838Z,13.44
2023-08-02T01:17:11.786Z,13.45
2023-08-02T01:18:11.950Z,13.46
2023-08-02T01:19:11.982Z,13.51
2023-08-02T01:20:12.038Z,13.52
2023-08-02T01:21:12.133Z,13.55
2023-08-02T01:22:12.236Z,13.62
2023-08-02T01:23:12.312Z,13.64
2023-08-02T01:24:12.396Z,13.67
2023-08-02T01:25:12.439Z,13.73
2023-08-02T01:26:12.501Z,13.77
2023-08-02T01:27:12.562Z,13.81
2023-08-02T01:28:12.662Z,13.84
2023-08-02T01:29:12.716Z,13.82
2023-08-02T01:30:12.846Z,13.89
2023-08-02T01:31:12.935Z,13.95
2023-08-02T01:32:13.007Z,13.97
2023-08-02T01:33:13.237Z,14.02
2023-08-02T01:34:13.163Z,14.04
2023-08-02T01:35:13.235Z,14.09
2023-08-02T01:36:13.298Z,14.14
2023-08-02T01:37:13.381Z,14.17
2023-08-02T01:38:13.489Z,14.21
2023-08-02T01:39:13.527Z,14.24
2023-08-02T01:40:13.637Z,14.24
2023-08-02T01:41:13.703Z,14.25
2023-08-02T01:42:13.770Z,14.27
2023-08-02T01:43:13.828Z,14.32
2023-08-02T01:44:13.944Z,14.39
2023-08-02T01:45:14.018Z,14.42
2023-08-02T01:46:14.163Z,14.42
2023-08-02T01:47:14.161Z,14.42
2023-08-02T01:48:14.287Z,14.43
2023-08-02T01:49:14.330Z,14.40
2023-08-02T01:50:14.422Z,14.42
2023-08-02T01:51:14.483Z,14.39
2023-08-02T01:52:14.586Z,14.39
2023-08-02T01:53:14.643Z,14.39
2023-08-02T01:54:14.731Z,14.39
2023-08-02T01:55:14.799Z,14.36
2023-08-02T01:56:14.893Z,14.37
2023-08-02T01:57:14.974Z,14.37
2023-08-02T01:58:15.044Z,14.35
2023-08-02T01:59:15.083Z,14.32
2023-08-02T02:00:15.187Z,14.28
2023-08-02T02:01:15.291Z,14.27
2023-08-02T02:02:15.377Z,14.25
2023-08-02T02:03:15.520Z,14.21
2023-08-02T02:04:15.482Z,14.17
2023-08-02T02:05:15.572Z,14.12
2023-08-02T02:06:15.688Z,14.12
2023-08-02T02:07:15.793Z,14.14
2023-08-02T02:08:15.855Z,14.14
2023-08-02T02:09:15.916Z,14.12
2023-08-02T02:10:16.020Z,14.14
2023-08-02T02:11:16.067Z,14.14
2023-08-02T02:12:16.157Z,14.17
2023-08-02T02:13:16.271Z,14.17
2023-08-02T02:14:16.980Z,14.20
2023-08-02T02:15:16.345Z,14.22
2023-08-02T02:16:16.460Z,14.22
2023-08-02T02:17:16.529Z,14.24
2023-08-02T02:18:16.594Z,14.27
2023-08-02T02:19:16.672Z,14.27
2023-08-02T02:20:16.737Z,14.27
2023-08-02T02:21:16.831Z,14.28
2023-08-02T02:22:16.944Z,14.32
2023-08-02T02:23:16.958Z,14.32
2023-08-02T02:24:17.017Z,14.32
2023-08-02T02:25:17.085Z,14.29
2023-08-02T02:26:17.151Z,14.32
2023-08-02T02:27:17.246Z,14.29
2023-08-02T02:28:17.319Z,14.28
2023-08-02T02:29:17.384Z,14.24
2023-08-02T02:30:17.488Z,14.21
2023-08-02T02:31:17.671Z,14.18
2023-08-02T02:32:17.667Z,14.15
2023-08-02T02:33:17.749Z,14.10
2023-08-02T02:34:17.816Z,14.07
2023-08-02T02:35:17.872Z,14.07
2023-08-02T02:36:17.989Z,14.06
2023-08-02T02:37:18.054Z,14.06
2023-08-02T02:38:18.103Z,14.04
2023-08-02T02:39:18.203Z,14.04
2023-08-02T02:40:18.254Z,14.02
2023-08-02T02:41:18.354Z,14.02
2023-08-02T02:42:18.486Z,14.02
2023-08-02T02:43:18.527Z,14.00
2023-08-02T02:44:18.626Z,13.96
2023-08-02T02:45:18.722Z,13.92
2023-08-02T02:46:18.830Z,13.92
2023-08-02T02:47:18.913Z,13.88
2023-08-02T02:48:18.972Z,13.88
2023-08-02T02:49:19.082Z,13.89
2023-08-02T02:50:19.151Z,13.84
2023-08-02T02:51:19.244Z,13.85
2023-08-02T02:52:19.373Z,13.88
2023-08-02T02:53:19.406Z,13.92
2023-08-02T02:54:19.466Z,13.99
2023-08-02T02:55:19.570Z,14.06
2023-08-02T02:56:19.624Z,14.06
2023-08-02T02:57:19.773Z,14.04
2023-08-02T02:58:19.815Z,14.02
2023-08-02T02:59:19.917Z,13.97
2023-08-02T03:00:19.967Z,13.95
2023-08-02T03:01:20.055Z,13.88
2023-08-02T03:02:20.154Z,13.87
2023-08-02T03:03:20.311Z,13.84
2023-08-02T03:04:20.266Z,13.79
2023-08-02T03:05:20.362Z,13.77
2023-08-02T03:06:20.486Z,13.79
2023-08-02T03:07:20.534Z,13.79
2023-08-02T03:08:20.580Z,13.82
2023-08-02T03:09:20.666Z,13.79
2023-08-02T03:10:20.729Z,13.77
2023-08-02T03:11:20.792Z,13.77
2023-08-02T03:12:20.874Z,13.77
2023-08-02T03:13:20.956Z,13.73
2023-08-02T03:14:20.991Z,13.73
2023-08-02T03:15:21.086Z,13.70
2023-08-02T03:16:21.203Z,13.66
2023-08-02T03:17:21.222Z,13.66
2023-08-02T03:18:21.373Z,13.62
2023-08-02T03:19:21.394Z,13.63
2023-08-02T03:20:21.479Z,13.62
2023-08-02T03:21:21.584Z,13.62
2023-08-02T03:22:21.665Z,13.55
2023-08-02T03:23:21.763Z,13.51
2023-08-02T03:24:21.817Z,13.46
2023-08-02T03:25:21.905Z,13.45
2023-08-02T03:26:21.964Z,13.45
2023-08-02T03:27:22.067Z,13.45
2023-08-02T03:28:22.162Z,13.46
2023-08-02T03:29:22.255Z,13.45
2023-08-02T03:30:22.329Z,13.48
2023-08-02T03:31:22.420Z,13.48
2023-08-02T03:32:22.478Z,13.49
2023-08-02T03:33:22.553Z,13.48
2023-08-02T03:34:22.669Z,13.46
2023-08-02T03:35:22.752Z,13.44
2023-08-02T03:36:22.806Z,13.44
2023-08-02T03:37:22.873Z,13.42
2023-08-02T03:38:22.949Z,13.41
2023-08-02T03:39:23.030Z,13.39
2023-08-02T03:40:23.114Z,13.41
2023-08-02T03:41:23.199Z,13.42
2023-08-02T03:42:23.282Z,13.45
2023-08-02T03:43:23.372Z,13.48
2023-08-02T03:44:23.596Z,13.49
2023-08-02T03:45:23.528Z,13.51
2023-08-02T03:46:23.694Z,13.52
2023-08-02T03:47:23.697Z,13.55
2023-08-02T03:48:23.784Z,13.55
2023-08-02T03:49:23.900Z,13.60
2023-08-02T03:50:23.957Z,13.63
2023-08-02T03:51:24.020Z,13.67
2023-08-02T03:52:24.090Z,13.69
2023-08-02T03:53:24.162Z,13.71
2023-08-02T03:54:24.267Z,13.77
2023-08-02T03:55:24.348Z,13.78
2023-08-02T03:56:24.438Z,13.77
2023-08-02T03:57:24.516Z,13.78
2023-08-02T03:58:24.574Z,13.82
2023-08-02T03:59:24.669Z,13.81
2023-08-02T04:00:24.698Z,13.85
2023-08-02T04:01:24.809Z,13.87
2023-08-02T04:02:24.885Z,13.87
2023-08-02T04:03:24.934Z,13.88
2023-08-02T04:04:25.119Z,13.91
2023-08-02T04:05:25.132Z,13.95
2023-08-02T04:06:25.242Z,13.99
2023-08-02T04:07:25.259Z,14.03
2023-08-02T04:08:25.369Z,14.07
2023-08-02T04:09:25.469Z,14.07
2023-08-02T04:10:25.502Z,14.14
2023-08-02T04:11:25.568Z,14.15
2023-08-02T04:12:25.634Z,14.17
2023-08-02T04:13:25.763Z,14.20
2023-08-02T04:14:25.822Z,14.22
2023-08-02T04:15:25.895Z,14.27
2023-08-02T04:16:26.008Z,14.32
2023-08-02T04:17:26.112Z,14.35
2023-08-02T04:18:26.180Z,14.37
2023-08-02T04:19:26.271Z,14.37
2023-08-02T04:20:26.338Z,14.40
2023-08-02T04:21:26.386Z,14.39
2023-08-02T04:22:26.467Z,14.42
2023-08-02T04:23:26.535Z,14.43
2023-08-02T04:24:26.625Z,14.46
2023-08-02T04:25:26.713Z,14.47
2023-08-02T04:26:26.849Z,14.51
2023-08-02T04:27:26.849Z,14.50
2023-08-02T04:28:26.918Z,14.52
2023-08-02T04:29:26.998Z,14.54
2023-08-02T04:30:27.091Z,14.55
2023-08-02T04:31:27.279Z,14.57
2023-08-02T04:32:27.343Z,14.55
2023-08-02T04:33:27.369Z,14.55
2023-08-02T04:34:27.450Z,14.57
2023-08-02T04:35:27.516Z,14.60
2023-08-02T04:36:27.594Z,14.62
2023-08-02T04:37:27.683Z,14.64
2023-08-02T04:38:27.774Z,14.68
2023-08-02T04:39:28.742Z,14.70
2023-08-02T04:40:27.992Z,14.75
2023-08-02T04:41:28.017Z,14.81
2023-08-02T04:42:28.084Z,14.86
2023-08-02T04:43:28.180Z,14.92
2023-08-02T04:44:28.224Z,14.99
2023-08-02T04:45:28.283Z,15.01
2023-08-02T04:46:28.481Z,15.06
2023-08-02T04:47:28.482Z,15.07
2023-08-02T04:48:28.493Z,15.11
2023-08-02T04:49:28.624Z,15.14
2023-08-02T04:50:28.631Z,15.17
2023-08-02T04:51:28.735Z,15.14
2023-08-02T04:52:28.773Z,15.16
2023-08-02T04:53:28.869Z,15.11
2023-08-02T04:54:28.971Z,15.11
2023-08-02T04:55:29.104Z,15.13
2023-08-02T04:56:29.176Z,15.13
2023-08-02T04:57:29.250Z,15.10
2023-08-02T04:58:29.354Z,15.14
2023-08-02T04:59:29.401Z,15.11
2023-08-02T05:00:29.619Z,15.10
2023-08-02T05:01:29.623Z,15.06
2023-08-02T05:02:29.675Z,15.07
2023-08-02T05:03:29.740Z,15.06
2023-08-02T05:04:29.834Z,15.07
2023-08-02T05:05:29.939Z,15.07
2023-08-02T05:06:29.993Z,15.06
2023-08-02T05:07:30.079Z,15.10
2023-08-02T05:08:30.132Z,15.11
2023-08-02T05:09:30.253Z,15.13
2023-08-02T05:10:30.336Z,15.13
2023-08-02T05:11:30.428Z,15.16
2023-08-02T05:12:30.494Z,15.20
2023-08-02T05:13:30.562Z,15.20
2023-08-02T05:14:30.696Z,15.28
2023-08-02T05:15:30.726Z,15.32
2023-08-02T05:16:30.867Z,15.36
2023-08-02T05:17:30.903Z,15.41
2023-08-02T05:18:30.924Z,15.47
2023-08-02T05:19:31.038Z,15.50
2023-08-02T05:20:31.113Z,15.53
2023-08-02T05:21:31.322Z,15.56
2023-08-02T05:22:31.291Z,15.57
2023-08-02T05:23:31.356Z,15.60
2023-08-02T05:24:31.438Z,15.68
2023-08-02T05:25:31.541Z,15.82
2023-08-02T05:26:31.616Z,15.86
2023-08-02T05:27:31.682Z,15.90
2023-08-02T05:28:31.772Z,15.96
2023-08-02T05:29:31.850Z,16.05
2023-08-02T05:30:31.941Z,16.12
2023-08-02T05:31:32.057Z,16.12
2023-08-02T05:32:32.227Z,16.15
2023-08-02T05:33:32.151Z,16.21
2023-08-02T05:34:32.239Z,16.23
2023-08-02T05:35:32.286Z,16.28
2023-08-02T05:36:32.358Z,16.41
2023-08-02T05:37:32.439Z,16.48
2023-08-02T05:38:32.509Z,16.56
2023-08-02T05:39:33.167Z,16.60
2023-08-02T05:40:32.659Z,16.53
2023-08-02T05:41:32.770Z,16.52
2023-08-02T05:42:32.839Z,16.48
2023-08-02T05:43:32.904Z,16.49
2023-08-02T05:44:32.966Z,16.48
2023-08-02T05:45:33.075Z,16.48
2023-08-02T05:46:34.688Z,16.48
2023-08-02T05:47:33.260Z,16.48
2023-08-02T05:48:33.313Z,16.50
2023-08-02T05:49:33.367Z,16.57
2023-08-02T05:50:33.456Z,16.64
2023-08-02T05:51:33.502Z,16.70
2023-08-02T05:52:33.647Z,16.76
2023-08-02T05:53:33.741Z,16.82
2023-08-02T05:54:33.751Z,16.86
2023-08-02T05:55:33.862Z,16.88
2023-08-02T05:56:33.912Z,16.98
2023-08-02T05:57:33.982Z,17.03
2023-08-02T05:58:34.085Z,17.08
2023-08-02T05:59:34.116Z,17.19
2023-08-02T06:00:34.228Z,17.18
2023-08-02T06:01:34.332Z,17.23
2023-08-02T06:02:34.379Z,17.21
2023-08-02T06:03:34.696Z,17.25
2023-08-02T06:04:34.509Z,17.25
2023-08-02T06:05:34.589Z,17.28
2023-08-02T06:06:34.708Z,17.25
2023-08-02T06:07:34.757Z,17.18
2023-08-02T06:08:34.813Z,17.11
2023-08-02T06:09:34.889Z,17.04
2023-08-02T06:10:35.157Z,16.98
2023-08-02T06:11:35.076Z,16.94
2023-08-02T06:12:35.100Z,16.89
2023-08-02T06:13:35.216Z,16.82
2023-08-02T06:14:35.284Z,16.79
2023-08-02T06:15:35.465Z,16.79
2023-08-02T06:16:35.431Z,16.79
2023-08-02T06:17:35.579Z,16.76
2023-08-02T06:18:35.650Z,16.82
2023-08-02T06:19:35.664Z,16.83
2023-08-02T06:20:35.780Z,16.83
2023-08-02T06:21:35.797Z,16.83
2023-08-02T06:22:35.917Z,16.85
2023-08-02T06:23:35.963Z,16.85
2023-08-02T06:24:36.060Z,16.82
2023-08-02T06:25:36.130Z,16.79
2023-08-02T06:26:36.178Z,16.79
2023-08-02T06:27:37.067Z,16.71
2023-08-02T06:28:36.402Z,16.75
2023-08-02T06:29:36.472Z,16.82
2023-08-02T06:30:36.540Z,16.91
2023-08-02T06:31:36.644Z,16.94
2023-08-02T06:32:36.769Z,17.01
2023-08-02T06:33:36.793Z,17.04
2023-08-02T06:34:36.871Z,17.06
2023-08-02T06:35:36.928Z,17.08
2023-08-02T06:36:37.681Z,17.06
2023-08-02T06:37:37.061Z,17.06
2023-08-02T06:38:37.157Z,17.03
2023-08-02T06:39:37.256Z,17.01
2023-08-02T06:40:37.414Z,16.97
2023-08-02T06:41:37.397Z,16.96
2023-08-02T06:42:37.452Z,16.98
2023-08-02T06:43:37.611Z,16.98
2023-08-02T06:44:37.622Z,16.97
2023-08-02T06:45:37.682Z,17.01
2023-08-02T06:46:37.798Z,17.04
2023-08-02T06:47:37.914Z,17.06
2023-08-02T06:48:38.073Z,17.15
2023-08-02T06:49:38.082Z,17.26
2023-08-02T06:50:38.139Z,17.37
2023-08-02T06:51:38.194Z,17.43
2023-08-02T06:52:38.304Z,17.44
2023-08-02T06:53:38.387Z,17.51
2023-08-02T06:54:38.455Z,17.52
2023-08-02T06:55:38.585Z,17.58
2023-08-02T06:56:38.701Z,17.68
2023-08-02T06:57:38.884Z,17.74
2023-08-02T06:58:38.818Z,17.78
2023-08-02T06:59:38.837Z,17.79
2023-08-02T07:00:38.989Z,17.87
2023-08-02T07:01:38.989Z,17.90
2023-08-02T07:02:39.106Z,17.86
2023-08-02T07:03:39.131Z,17.90
2023-08-02T07:04:39.299Z,17.95
2023-08-02T07:05:39.350Z,17.99
2023-08-02T07:06:39.457Z,17.96
2023-08-02T07:07:39.515Z,17.87
2023-08-02T07:08:39.589Z,17.87
2023-08-02T07:09:39.809Z,17.87
2023-08-02T07:10:39.745Z,17.87
2023-08-02T07:11:40.849Z,17.87
2023-08-02T07:12:39.882Z,17.87
2023-08-02T07:13:40.849Z,17.79
2023-08-02T07:14:40.062Z,17.78
2023-08-02T07:15:40.132Z,17.74
2023-08-02T07:16:40.334Z,17.74
2023-08-02T07:17:40.301Z,17.72
2023-08-02T07:18:40.512Z,17.66
2023-08-02T07:19:40.448Z,17.64
2023-08-02T07:20:40.491Z,17.56
2023-08-02T07:21:41.084Z,17.48
2023-08-02T07:22:40.682Z,17.36
2023-08-02T07:23:40.749Z,17.28
2023-08-02T07:24:40.857Z,17.25
2023-08-02T07:25:41.601Z,17.22
2023-08-02T07:26:41.031Z,17.21
2023-08-02T07:27:41.117Z,17.19
2023-08-02T07:28:41.173Z,17.19
2023-08-02T07:29:41.733Z,17.18
2023-08-02T07:30:41.368Z,17.16
2023-08-02T07:31:41.953Z,17.16
2023-08-02T07:32:41.590Z,17.11
2023-08-02T07:33:41.616Z,17.08
2023-08-02T07:34:41.771Z,17.03
2023-08-02T07:35:41.834Z,16.98
2023-08-02T07:36:41.926Z,16.89
2023-08-02T07:37:41.975Z,16.86
2023-08-02T07:38:42.066Z,16.78
2023-08-02T07:39:42.151Z,16.70
2023-08-02T07:40:42.223Z,16.66
2023-08-02T07:41:42.591Z,16.57
2023-08-02T07:42:42.366Z,16.49
2023-08-02T07:43:42.485Z,16.45
2023-08-02T07:44:42.508Z,16.38
2023-08-02T07:45:42.569Z,16.33
2023-08-02T07:46:42.791Z,16.27
2023-08-02T07:47:42.751Z,16.27
2023-08-02T07:48:42.836Z,16.20
2023-08-02T07:49:42.894Z,16.17
2023-08-02T07:50:42.990Z,16.17
2023-08-02T07:51:43.338Z,16.17
2023-08-02T07:52:43.170Z,16.20
2023-08-02T07:53:43.192Z,16.21
2023-08-02T07:54:54.677Z,16.24
2023-08-02T07:55:43.377Z,16.30
2023-08-02T07:56:43.489Z,16.38
2023-08-02T07:57:43.508Z,16.46
2023-08-02T07:58:43.607Z,16.52
2023-08-02T07:59:43.711Z,16.56
2023-08-02T08:00:43.803Z,16.58
2023-08-02T08:01:44.151Z,16.56
2023-08-02T08:02:43.994Z,16.53
2023-08-02T08:03:44.073Z,16.49
2023-08-02T08:04:44.109Z,16.52
2023-08-02T08:05:44.212Z,16.50
2023-08-02T08:06:44.373Z,16.57
2023-08-02T08:07:44.391Z,16.64
2023-08-02T08:08:44.576Z,16.66
2023-08-02T08:09:44.554Z,16.68
2023-08-02T08:10:44.621Z,16.68
2023-08-02T08:11:44.972Z,16.73
2023-08-02T08:12:44.818Z,16.71
2023-08-02T08:13:44.851Z,16.64
2023-08-02T08:14:44.923Z,16.60
2023-08-02T08:15:45.018Z,16.53
2023-08-02T08:16:45.112Z,16.53
2023-08-02T08:17:45.252Z,16.50
2023-08-02T08:18:45.251Z,16.52
2023-08-02T08:19:45.307Z,16.56
2023-08-02T08:20:45.380Z,16.60
2023-08-02T08:21:45.474Z,16.63
2023-08-02T08:22:45.623Z,16.64
2023-08-02T08:23:45.711Z,16.61
2023-08-02T08:24:45.776Z,16.68
2023-08-02T08:25:45.838Z,16.63
2023-08-02T08:26:45.939Z,16.61
2023-08-02T08:27:46.006Z,16.66
2023-08-02T08:28:46.193Z,16.67
2023-08-02T08:29:46.182Z,16.61
2023-08-02T08:30:46.218Z,16.64
2023-08-02T08:31:46.533Z,16.63
2023-08-02T08:32:46.393Z,16.67
2023-08-02T08:33:46.465Z,16.64
2023-08-02T08:34:46.543Z,16.68
2023-08-02T08:35:46.599Z,16.70
2023-08-02T08:36:46.695Z,16.75
2023-08-02T08:37:46.760Z,16.73
2023-08-02T08:38:47.760Z,16.76
2023-08-02T08:39:51.467Z,16.91
2023-08-02T08:40:47.019Z,17.00
2023-08-02T08:41:47.101Z,17.06
2023-08-02T08:42:47.237Z,17.06
2023-08-02T08:43:47.265Z,17.04
2023-08-02T08:44:47.350Z,17.06
2023-08-02T08:45:47.512Z,17.01
2023-08-02T08:46:47.541Z,17.01
2023-08-02T08:47:47.648Z,17.01
2023-08-02T08:48:47.693Z,16.98
2023-08-02T08:49:47.775Z,16.96
2023-08-02T08:50:47.844Z,16.94
2023-08-02T08:51:47.886Z,16.94
2023-08-02T08:52:47.977Z,16.96
2023-08-02T08:53:48.103Z,17.01
2023-08-02T08:54:48.172Z,16.96
2023-08-02T08:55:48.237Z,16.94
2023-08-02T08:56:48.320Z,16.78
2023-08-02T08:57:48.381Z,16.75
2023-08-02T08:58:48.453Z,16.75
2023-08-02T08:59:48.528Z,16.70
2023-08-02T09:00:48.658Z,16.64
2023-08-02T09:01:48.698Z,16.57
2023-08-02T09:02:48.885Z,16.49
2023-08-02T09:03:49.170Z,16.49
2023-08-02T09:04:49.358Z,16.52
2023-08-02T09:05:49.029Z,16.48
2023-08-02T09:06:49.128Z,16.52
2023-08-02T09:07:49.184Z,16.53
2023-08-02T09:08:49.294Z,16.57
2023-08-02T09:09:49.347Z,16.63
2023-08-02T09:10:49.477Z,16.49
2023-08-02T09:11:49.576Z,16.49
2023-08-02T09:12:49.634Z,16.46
2023-08-02T09:13:49.699Z,16.38
2023-08-02T09:14:49.759Z,16.35
2023-08-02T09:15:51.885Z,16.33
2023-08-02T09:16:49.931Z,16.34
2023-08-02T09:17:50.116Z,16.33
2023-08-02T09:18:50.092Z,16.42
2023-08-02T09:19:50.517Z,16.48
2023-08-02T09:20:50.268Z,16.53
2023-08-02T09:21:51.339Z,16.58
2023-08-02T09:22:50.458Z,16.66
2023-08-02T09:23:50.540Z,16.75
2023-08-02T09:24:50.631Z,16.78
2023-08-02T09:25:50.702Z,16.89
2023-08-02T09:26:50.791Z,16.96
2023-08-02T09:27:50.883Z,17.00
2023-08-02T09:28:50.960Z,17.00
2023-08-02T09:29:51.000Z,17.00
2023-08-02T09:30:51.083Z,16.98
2023-08-02T09:31:51.253Z,17.01
2023-08-02T09:32:51.384Z,16.96
2023-08-02T09:33:51.309Z,16.94
2023-08-02T09:34:51.418Z,16.93
2023-08-02T09:35:51.536Z,16.86
2023-08-02T09:36:51.564Z,16.81
2023-08-02T09:37:51.635Z,16.76
2023-08-02T09:38:51.719Z,16.76
2023-08-02T09:39:51.845Z,16.75
2023-08-02T09:41:35.862Z,16.68
2023-08-02T09:42:01.043Z,16.68
2023-08-02T09:42:52.051Z,16.63
2023-08-02T09:43:52.147Z,16.63
2023-08-02T09:44:52.216Z,16.67
2023-08-02T09:45:52.341Z,16.70
2023-08-02T09:46:52.344Z,16.76
2023-08-02T09:47:52.610Z,16.78
2023-08-02T09:48:52.600Z,16.78
2023-08-02T09:49:52.683Z,16.79
2023-08-02T09:50:52.759Z,16.79
2023-08-02T09:51:52.847Z,16.79
2023-08-02T09:52:53.222Z,16.79
2023-08-02T09:53:53.023Z,16.78
2023-08-02T09:54:53.816Z,16.82
2023-08-02T09:55:53.168Z,16.88
2023-08-02T09:56:53.265Z,16.98
2023-08-02T09:57:53.342Z,17.07
2023-08-02T09:58:53.439Z,17.15
2023-08-02T09:59:53.508Z,17.23
2023-08-02T10:00:53.631Z,17.31
2023-08-02T10:01:53.785Z,17.43
2023-08-02T10:02:53.824Z,17.41
2023-08-02T10:03:53.825Z,17.34
2023-08-02T10:04:53.971Z,17.43
2023-08-02T10:05:54.012Z,17.46
2023-08-02T10:06:54.125Z,17.49
2023-08-02T10:07:54.177Z,17.56
2023-08-02T10:08:54.343Z,17.51
2023-08-02T10:09:54.352Z,17.49
2023-08-02T10:10:54.503Z,17.52
2023-08-02T10:11:56.552Z,17.63
2023-08-02T10:12:54.561Z,17.68
2023-08-02T10:13:54.646Z,17.79
2023-08-02T10:14:54.729Z,17.84
2023-08-02T10:15:54.868Z,17.86
2023-08-02T10:16:54.924Z,17.89
2023-08-02T10:17:57.078Z,17.81
2023-08-02T10:18:55.042Z,17.74
2023-08-02T10:19:55.127Z,17.74
2023-08-02T10:20:55.234Z,17.74
2023-08-02T10:21:55.305Z,17.68
2023-08-02T10:22:55.358Z,17.58
2023-08-02T10:23:56.011Z,17.51
2023-08-02T10:24:55.555Z,17.54
2023-08-02T10:25:55.606Z,17.59
2023-08-02T10:26:55.705Z,17.72
2023-08-02T10:27:55.730Z,17.99
2023-08-02T10:28:55.818Z,18.10
2023-08-02T10:29:57.035Z,18.21
2023-08-02T10:30:55.977Z,18.21
2023-08-02T10:31:56.106Z,18.23
2023-08-02T10:32:56.210Z,18.11
2023-08-02T10:33:56.289Z,18.00
2023-08-02T10:34:56.315Z,17.93
2023-08-02T10:35:56.702Z,17.87
2023-08-02T10:36:56.459Z,17.75
2023-08-02T10:37:56.523Z,17.79
2023-08-02T10:38:56.604Z,17.89
2023-08-02T10:39:56.687Z,18.00
2023-08-02T10:40:56.791Z,18.15
2023-08-02T10:41:58.361Z,18.29
2023-08-02T10:42:56.912Z,18.52
2023-08-02T10:43:57.006Z,18.78
2023-08-02T10:44:57.160Z,18.94
2023-08-02T10:45:57.177Z,18.92
2023-08-02T10:46:57.281Z,18.94
2023-08-02T10:47:57.375Z,18.92
2023-08-02T10:48:57.442Z,18.81
2023-08-02T10:49:57.532Z,18.75
2023-08-02T10:50:57.609Z,18.80
2023-08-02T10:51:57.696Z,19.04
2023-08-02T10:52:57.754Z,19.26
2023-08-02T10:53:57.840Z,19.41
2023-08-02T10:54:57.940Z,19.50
2023-08-02T10:55:58.070Z,19.56
2023-08-02T10:56:58.143Z,19.61
2023-08-02T10:57:58.221Z,19.73
2023-08-02T10:58:58.306Z,19.58
2023-08-02T10:59:58.401Z,19.37
2023-08-02T11:00:58.537Z,19.16
2023-08-02T11:01:58.586Z,18.99
2023-08-02T11:02:58.698Z,18.85
2023-08-02T11:03:58.754Z,18.82
2023-08-02T11:04:58.828Z,18.70
2023-08-02T11:05:58.931Z,18.52
2023-08-02T11:06:59.023Z,18.42
2023-08-02T11:07:59.114Z,18.42
2023-08-02T11:08:59.162Z,18.45
2023-08-02T11:09:59.228Z,18.54
2023-08-02T11:10:59.367Z,18.51
2023-08-02T11:11:59.414Z,18.50
2023-08-02T11:12:59.490Z,18.42
2023-08-02T11:13:59.561Z,18.39
2023-08-02T11:14:59.639Z,18.41
2023-08-02T11:15:59.762Z,18.48
2023-08-02T11:17:12.609Z,18.52
2023-08-02T11:18:00.010Z,18.55
2023-08-02T11:19:00.124Z,18.63
2023-08-02T11:21:00.136Z,18.87
2023-08-02T11:22:00.249Z,18.94
2023-08-02T11:23:00.302Z,19.02
2023-08-02T11:24:01.910Z,19.06
2023-08-02T11:25:00.493Z,19.11
2023-08-02T11:27:01.231Z,19.07
2023-08-02T11:28:00.784Z,19.00
2023-08-02T11:29:00.829Z,19.00
2023-08-02T11:30:00.926Z,18.98
2023-08-02T11:32:01.065Z,19.06
2023-08-02T11:33:01.283Z,19.07
2023-08-02T11:34:01.224Z,18.98
2023-08-02T11:35:01.321Z,18.84
2023-08-02T11:36:01.421Z,18.80
2023-08-02T11:37:01.456Z,18.82
2023-08-02T11:38:01.548Z,18.84
2023-08-02T11:39:01.667Z,18.82
2023-08-02T11:40:19.805Z,18.88
2023-08-02T11:41:01.777Z,18.98
2023-08-02T11:42:01.848Z,18.98
2023-08-02T11:43:05.072Z,18.99
2023-08-02T11:44:02.040Z,19.00
2023-08-02T11:45:14.983Z,18.99
2023-08-02T11:46:02.239Z,19.06
2023-08-02T11:47:02.283Z,19.21
2023-08-02T11:49:02.454Z,19.25
2023-08-02T11:50:02.581Z,19.22
2023-08-02T11:51:03.073Z,19.10
2023-08-02T11:52:02.722Z,18.99
2023-08-02T11:53:02.849Z,18.98
2023-08-02T11:54:02.864Z,18.95
2023-08-02T11:55:02.961Z,18.92
2023-08-02T11:56:03.034Z,18.90
2023-08-02T11:57:03.803Z,18.82
2023-08-02T11:58:03.211Z,18.81
2023-08-02T11:59:03.327Z,18.80
2023-08-02T12:00:03.402Z,18.80
2023-08-02T12:01:03.459Z,18.87
2023-08-02T12:02:03.628Z,18.91
2023-08-02T12:03:03.707Z,19.06
2023-08-02T12:04:03.770Z,19.23
2023-08-02T12:05:03.753Z,19.33
2023-08-02T12:06:03.939Z,19.65
2023-08-02T12:07:03.905Z,19.94
2023-08-02T12:08:03.982Z,20.21
2023-08-02T12:09:04.135Z,20.47
2023-08-02T12:10:04.206Z,20.51
2023-08-02T12:11:04.285Z,20.54
2023-08-02T12:12:04.366Z,20.67
2023-08-02T12:13:04.459Z,20.97
2023-08-02T12:14:04.564Z,21.43
2023-08-02T12:15:04.674Z,22.72
2023-08-02T12:16:04.833Z,23.23
2023-08-02T12:17:04.807Z,23.60
2023-08-02T12:18:04.984Z,23.70
2023-08-02T12:19:05.019Z,23.90
2023-08-02T12:20:05.068Z,25.05
2023-08-02T12:21:05.131Z,25.13
2023-08-02T12:22:05.257Z,24.93
2023-08-02T12:23:05.280Z,24.08
2023-08-02T12:24:05.398Z,23.72
2023-08-02T12:25:05.447Z,23.57
2023-08-02T12:26:05.553Z,23.38
2023-08-02T12:27:05.598Z,23.12
2023-08-02T12:28:05.714Z,23.23
2023-08-02T12:29:05.777Z,23.85
2023-08-02T12:30:05.883Z,23.76
2023-08-02T12:31:06.021Z,23.39
2023-08-02T12:32:06.151Z,22.85
2023-08-02T12:33:06.206Z,22.21
2023-08-02T12:34:06.195Z,21.64
2023-08-02T12:35:11.853Z,21.25
2023-08-02T12:36:06.402Z,21.19
2023-08-02T12:37:06.459Z,21.04
2023-08-02T12:38:06.573Z,21.03
2023-08-02T12:39:06.664Z,21.07
2023-08-02T12:40:06.718Z,21.09
2023-08-02T12:41:06.819Z,21.04
2023-08-02T12:42:06.887Z,20.97
2023-08-02T12:43:06.943Z,20.84
2023-08-02T12:44:07.055Z,20.73
2023-08-02T12:45:17.400Z,20.79
2023-08-02T12:46:07.263Z,20.79
2023-08-02T12:47:07.334Z,20.79
2023-08-02T12:48:07.456Z,20.62
2023-08-02T12:49:07.504Z,20.47
2023-08-02T12:50:07.632Z,20.33
2023-08-02T12:51:07.659Z,20.03
2023-08-02T12:52:07.767Z,19.91
2023-08-02T12:53:07.821Z,19.83
2023-08-02T12:54:07.904Z,19.78
2023-08-02T12:55:07.957Z,19.61
2023-08-02T12:56:08.030Z,19.44
2023-08-02T12:57:08.096Z,19.39